»·PEaware :: N14677 L88-KSBP

N14677 :: L88-KSBP

FLIGHT INFORMATION

Flight Status: Arrived
Operator: Privately registered:
United States
More flights under this callsign
Pilot: David F. (21030)
Aircraft: BEECH AIRCRAFT SUPER KING AIR COMMUTER
(BE20)
More flights by this aircraft type
Origin: L88 New Cuyama
United States
Destination: KSBP San Luis Co Regl
United States
More flights between these airports :: More routes between these airports
Route: DIRECT KSBP
File this flight plan on PilotEdge
Remarks:
Altitude:
(Current/Filed)
8,500ft
Speed:
(Current/Filed)
220kts
Departed: 09-Nov-18 07:03 AM
Arrived: 09-Nov-18 07:33 AM
Distance/Time
Traveled:
50nm/0:30
Distance/Time
To Go:
Arrived

Flight Plot

Page will automatically refresh every two minutes.

Flight plan parsing failed; only flown route is shown


Map Options




Map Legend


Flown Route
Filed Route
Departure Airport
Arrival Airport
Navaid (VOR, NDB)
Fix

Horizontal Profiles

Position Reports

Time Latitude Longitude Heading Altitude Ground
Speed
09-Nov-18 06:20 34.942878 -119.690273 204 2207ft 0kts
09-Nov-18 06:21 34.942878 -119.690273 204 2207ft 0kts
09-Nov-18 06:22 34.942878 -119.690273 204 2207ft 0kts
09-Nov-18 06:23 34.942878 -119.690273 204 2207ft 0kts
09-Nov-18 06:24 34.942878 -119.690273 204 2207ft 0kts
09-Nov-18 06:25 34.942878 -119.690273 204 2207ft 0kts
09-Nov-18 06:26 34.942878 -119.690273 204 2207ft 0kts
09-Nov-18 06:27 34.942878 -119.690273 204 2207ft 0kts
09-Nov-18 06:28 34.942878 -119.690273 204 2207ft 0kts
09-Nov-18 06:29 34.942878 -119.690273 204 2207ft 0kts
09-Nov-18 06:30 34.942878 -119.690273 204 2207ft 0kts
09-Nov-18 06:31 34.942878 -119.690273 204 2207ft 0kts
09-Nov-18 06:32 34.942878 -119.690273 204 2207ft 0kts
09-Nov-18 06:33 34.942878 -119.690273 204 2207ft 0kts
09-Nov-18 06:34 34.942878 -119.690273 204 2207ft 0kts
09-Nov-18 06:35 34.942878 -119.690273 204 2207ft 0kts
09-Nov-18 06:36 34.942878 -119.690273 204 2207ft 0kts
09-Nov-18 06:37 34.942878 -119.690273 204 2207ft 0kts
09-Nov-18 06:38 34.942878 -119.690273 204 2207ft 0kts
09-Nov-18 06:39 34.942878 -119.690273 204 2207ft 0kts
09-Nov-18 06:40 34.942878 -119.690273 204 2207ft 0kts
09-Nov-18 06:41 34.942878 -119.690273 204 2207ft 0kts
09-Nov-18 06:42 34.942878 -119.690273 204 2207ft 0kts
09-Nov-18 06:43 34.942878 -119.690273 204 2207ft 0kts
09-Nov-18 06:44 34.942878 -119.690273 204 2207ft 0kts
09-Nov-18 06:45 34.942878 -119.690273 204 2207ft 0kts
09-Nov-18 06:46 34.942878 -119.690273 204 2207ft 0kts
09-Nov-18 06:47 34.942878 -119.690273 204 2207ft 0kts
09-Nov-18 06:48 34.942878 -119.690273 204 2207ft 0kts
09-Nov-18 06:49 34.942878 -119.690273 204 2207ft 0kts
09-Nov-18 06:50 34.942878 -119.690273 204 2207ft 0kts
09-Nov-18 06:51 34.942878 -119.690273 204 2207ft 0kts
09-Nov-18 06:52 34.942878 -119.690273 204 2207ft 0kts
09-Nov-18 06:53 34.942878 -119.690273 204 2207ft 0kts
09-Nov-18 06:54 34.942878 -119.690273 204 2207ft 0kts
09-Nov-18 06:55 34.942878 -119.690273 204 2207ft 0kts
09-Nov-18 06:56 34.942878 -119.690273 204 2207ft 0kts
09-Nov-18 06:57 34.942878 -119.690273 204 2207ft 0kts
09-Nov-18 06:58 34.942878 -119.690273 204 2207ft 0kts
09-Nov-18 06:59 34.942878 -119.690273 204 2207ft 0kts
09-Nov-18 07:00 34.942832 -119.690718 271 2207ft 6kts
09-Nov-18 07:01 34.942264 -119.691200 129 2207ft 0kts
09-Nov-18 07:02 34.942264 -119.691200 129 2207ft 0kts
09-Nov-18 07:03 34.942264 -119.691200 129 2207ft 0kts
09-Nov-18 07:05 34.942139 -119.690995 120 2207ft 29kts
09-Nov-18 07:06 34.931427 -119.669377 100 3116ft 135kts
09-Nov-18 07:07 34.946659 -119.666187 285 4467ft 143kts
09-Nov-18 07:08 34.949952 -119.695043 269 5953ft 135kts
09-Nov-18 07:09 34.953574 -119.723904 284 7088ft 144kts
09-Nov-18 07:10 34.960175 -119.748948 289 8053ft 147kts
09-Nov-18 07:11 34.969175 -119.778761 290 8503ft 164kts
09-Nov-18 07:12 34.979087 -119.810496 291 8701ft 187kts
09-Nov-18 07:13 34.990524 -119.845917 292 8590ft 210kts
09-Nov-18 07:14 35.003368 -119.885442 291 8712ft 202kts
09-Nov-18 07:15 35.013446 -119.919531 290 9240ft 194kts
09-Nov-18 07:16 35.029048 -119.965852 294 8554ft 217kts
09-Nov-18 07:17 35.042632 -119.996485 298 8454ft 214kts
09-Nov-18 07:18 35.056357 -120.040122 290 8610ft 208kts
09-Nov-18 07:19 35.068919 -120.084282 286 8624ft 207kts
09-Nov-18 07:20 35.078633 -120.123218 287 8502ft 211kts
09-Nov-18 07:21 35.089972 -120.162162 291 8545ft 208kts
09-Nov-18 07:22 35.100874 -120.196651 285 8541ft 207kts
09-Nov-18 07:23 35.110565 -120.239042 292 8334ft 234kts
09-Nov-18 07:24 35.124492 -120.277791 292 8460ft 237kts
09-Nov-18 07:25 35.137656 -120.319514 291 8463ft 241kts
09-Nov-18 07:26 35.150882 -120.361943 291 8462ft 243kts
09-Nov-18 07:27 35.164002 -120.404933 291 8463ft 243kts
09-Nov-18 07:28 35.177811 -120.449254 291 8047ft 256kts
09-Nov-18 07:29 35.191928 -120.495401 291 6849ft 269kts
09-Nov-18 07:30 35.205320 -120.538845 291 6416ft 250kts
09-Nov-18 07:31 35.196131 -120.575434 166 4794ft 222kts
09-Nov-18 07:32 35.202710 -120.563327 290 3396ft 160kts
09-Nov-18 07:33 35.209902 -120.587977 294 1781ft 119kts
09-Nov-18 07:34 35.220913 -120.611048 300 811ft 136kts
09-Nov-18 07:35 35.232783 -120.633100 303 234ft 110kts
09-Nov-18 07:36 35.238277 -120.640017 54 215ft 1kts
09-Nov-18 07:37 35.238288 -120.639945 80 215ft 0kts
09-Nov-18 07:38 35.238295 -120.639891 81 215ft 0kts
09-Nov-18 07:39 35.238301 -120.639836 83 215ft 0kts
09-Nov-18 07:40 35.238306 -120.639782 84 215ft 0kts
09-Nov-18 07:41 35.238310 -120.639728 85 215ft 0kts
09-Nov-18 07:42 35.238313 -120.639675 87 215ft 0kts
09-Nov-18 07:43 35.238315 -120.639622 88 215ft 0kts
09-Nov-18 07:44 35.238316 -120.639569 89 215ft 0kts
09-Nov-18 07:45 35.238316 -120.639518 90 215ft 0kts
09-Nov-18 07:46 35.238315 -120.639466 92 215ft 0kts
09-Nov-18 07:47 35.238313 -120.639413 93 215ft 0kts
09-Nov-18 07:48 35.238310 -120.639366 94 215ft 0kts
09-Nov-18 07:49 35.238306 -120.639314 96 215ft 0kts
09-Nov-18 07:50 35.238301 -120.639261 97 215ft 0kts

Navigation Log

Ident Type
Flight plan parsing failed, navigation log unavailable